Time,TemperatureF,DewpointF,PressureIn,WindDirection,WindDirectionDegrees,WindSpeedMPH,WindSpeedGustMPH,Humidity,HourlyPrecipIn,Conditions,Clouds,dailyrainin,SoftwareType,DateUTC
2013-06-11 00:04:00,64.0,61.0,29.89,SSE,159,0.0,0.0,91,0.00,,,0.00,weatherlink.com 1.10,2013-06-11 05:04:00,
2013-06-11 00:19:00,63.3,61.0,29.89,SSE,159,0.0,0.0,92,0.00,,,0.00,weatherlink.com 1.10,2013-06-11 05:19:00,
2013-06-11 00:35:00,63.1,61.0,29.89,SSE,159,0.0,0.0,94,0.00,,,0.00,weatherlink.com 1.10,2013-06-11 05:35:00,
2013-06-11 00:50:00,64.5,63.0,29.90,East,88,0.0,2.0,94,0.00,,,0.00,weatherlink.com 1.10,2013-06-11 05:50:00,
2013-06-11 01:05:00,64.8,63.0,29.89,East,88,2.0,5.0,93,0.00,,,0.00,weatherlink.com 1.10,2013-06-11 06:05:00,
2013-06-11 01:20:00,65.1,63.0,29.88,East,101,0.0,2.0,91,0.00,,,0.00,weatherlink.com 1.10,2013-06-11 06:20:00,
2013-06-11 01:35:00,64.7,63.0,29.87,ESE,102,0.0,2.0,93,0.00,,,0.00,weatherlink.com 1.10,2013-06-11 06:35:00,
2013-06-11 01:50:00,64.6,63.0,29.86,ESE,105,1.0,2.0,93,0.00,,,0.00,weatherlink.com 1.10,2013-06-11 06:50:00,
2013-06-11 02:05:00,65.4,63.0,29.86,ESE,115,2.0,4.0,93,0.00,,,0.00,weatherlink.com 1.10,2013-06-11 07:05:00,
2013-06-11 02:20:00,65.5,63.0,29.86,SE,135,3.0,4.0,92,0.00,,,0.00,weatherlink.com 1.10,2013-06-11 07:20:00,
2013-06-11 02:35:00,65.2,63.0,29.88,SE,134,0.0,0.0,91,0.00,,,0.00,weatherlink.com 1.10,2013-06-11 07:35:00,
2013-06-11 02:50:00,64.7,63.0,29.87,SE,134,1.0,2.0,93,0.00,,,0.00,weatherlink.com 1.10,2013-06-11 07:50:00,
2013-06-11 03:05:00,65.2,63.0,29.86,East,89,1.0,3.0,92,0.00,,,0.00,weatherlink.com 1.10,2013-06-11 08:05:00,
2013-06-11 03:20:00,65.7,63.0,29.86,ESE,108,0.0,5.0,92,0.00,,,0.00,weatherlink.com 1.10,2013-06-11 08:20:00,
2013-06-11 03:35:00,66.1,64.0,29.85,SE,129,4.0,5.0,91,0.00,,,0.00,weatherlink.com 1.10,2013-06-11 08:35:00,
2013-06-11 03:50:00,66.0,63.0,29.84,SE,139,3.0,7.0,90,0.00,,,0.00,weatherlink.com 1.10,2013-06-11 08:50:00,
2013-06-11 04:05:00,65.5,63.0,29.84,SE,132,1.0,5.0,91,0.00,,,0.00,weatherlink.com 1.10,2013-06-11 09:05:00,
2013-06-11 04:20:00,65.5,63.0,29.84,SE,132,2.0,5.0,92,0.00,,,0.00,weatherlink.com 1.10,2013-06-11 09:20:00,
2013-06-11 04:35:00,65.6,63.0,29.83,SE,133,0.0,4.0,92,0.00,,,0.00,weatherlink.com 1.10,2013-06-11 09:35:00,
2013-06-11 04:50:00,65.7,63.0,29.82,ESE,107,3.0,5.0,92,0.00,,,0.00,weatherlink.com 1.10,2013-06-11 09:50:00,
2013-06-11 05:05:00,65.9,63.0,29.82,SE,130,1.0,3.0,91,0.00,,,0.00,weatherlink.com 1.10,2013-06-11 10:05:00,
2013-06-11 05:20:00,65.9,63.0,29.82,East,93,1.0,3.0,91,0.00,,,0.00,weatherlink.com 1.10,2013-06-11 10:20:00,
2013-06-11 05:35:00,65.8,63.0,29.82,ESE,114,1.0,4.0,91,0.00,,,0.00,weatherlink.com 1.10,2013-06-11 10:35:00,
2013-06-11 05:50:00,65.9,63.0,29.81,ESE,117,3.0,5.0,90,0.00,,,0.00,weatherlink.com 1.10,2013-06-11 10:50:00,
2013-06-11 06:05:00,66.0,63.0,29.81,East,101,1.0,4.0,90,0.00,,,0.00,weatherlink.com 1.10,2013-06-11 11:05:00,
2013-06-11 06:20:00,66.3,63.0,29.81,ESE,111,1.0,2.0,90,0.00,,,0.00,weatherlink.com 1.10,2013-06-11 11:20:00,
2013-06-11 06:35:00,66.7,63.0,29.81,East,83,2.0,3.0,89,0.00,,,0.00,weatherlink.com 1.10,2013-06-11 11:35:00,
2013-06-11 06:50:00,66.9,64.0,29.81,SE,131,2.0,4.0,89,0.00,,,0.00,weatherlink.com 1.10,2013-06-11 11:50:00,
2013-06-11 07:05:00,67.6,64.0,29.82,ESE,111,0.0,5.0,88,0.00,,,0.00,weatherlink.com 1.10,2013-06-11 12:05:00,
2013-06-11 07:20:00,68.1,64.0,29.81,ESE,110,2.0,5.0,87,0.00,,,0.00,weatherlink.com 1.10,2013-06-11 12:20:00,
2013-06-11 07:35:00,68.7,64.0,29.81,ESE,107,3.0,7.0,86,0.00,,,0.00,weatherlink.com 1.10,2013-06-11 12:35:00,
2013-06-11 07:50:00,69.7,65.0,29.81,SE,126,5.0,9.0,84,0.00,,,0.00,weatherlink.com 1.10,2013-06-11 12:50:00,
2013-06-11 08:05:00,70.7,66.0,29.82,SE,128,1.0,6.0,84,0.00,,,0.00,weatherlink.com 1.10,2013-06-11 13:05:00,
2013-06-11 08:20:00,71.3,65.0,29.82,ESE,121,4.0,5.0,81,0.00,,,0.00,weatherlink.com 1.10,2013-06-11 13:20:00,
2013-06-11 08:35:00,71.4,65.0,29.82,ESE,111,5.0,7.0,81,0.00,,,0.00,weatherlink.com 1.10,2013-06-11 13:35:00,
2013-06-11 08:50:00,71.7,65.0,29.82,East,99,1.0,6.0,79,0.00,,,0.00,weatherlink.com 1.10,2013-06-11 13:50:00,
2013-06-11 09:05:00,72.0,66.0,29.82,ESE,107,5.0,8.0,80,0.00,,,0.00,weatherlink.com 1.10,2013-06-11 14:05:00,
2013-06-11 09:20:00,72.0,65.0,29.81,ESE,114,4.0,7.0,79,0.00,,,0.00,weatherlink.com 1.10,2013-06-11 14:20:00,
2013-06-11 09:35:00,72.8,66.0,29.81,ESE,113,2.0,7.0,80,0.00,,,0.00,weatherlink.com 1.10,2013-06-11 14:35:00,
2013-06-11 09:50:00,73.3,66.0,29.81,ESE,109,0.0,7.0,78,0.00,,,0.00,weatherlink.com 1.10,2013-06-11 14:50:00,
2013-06-11 10:06:00,73.8,66.0,29.80,SE,130,3.0,7.0,77,0.00,,,0.00,weatherlink.com 1.10,2013-06-11 15:06:00,
2013-06-11 10:21:00,75.3,67.0,29.79,ESE,105,1.0,8.0,75,0.00,,,0.00,weatherlink.com 1.10,2013-06-11 15:21:00,
2013-06-11 10:36:00,76.1,68.0,29.80,ESE,122,3.0,7.0,76,0.00,,,0.00,weatherlink.com 1.10,2013-06-11 15:36:00,
2013-06-11 10:51:00,76.8,68.0,29.81,SSW,194,3.0,9.0,74,0.00,,,0.00,weatherlink.com 1.10,2013-06-11 15:51:00,
2013-06-11 11:06:00,77.3,68.0,29.81,SE,138,3.0,9.0,72,0.00,,,0.00,weatherlink.com 1.10,2013-06-11 16:06:00,
2013-06-11 11:21:00,78.1,70.0,29.82,ESE,116,1.0,10.0,75,0.00,,,0.00,weatherlink.com 1.10,2013-06-11 16:21:00,
2013-06-11 11:36:00,78.9,70.0,29.82,SE,141,2.0,5.0,73,0.00,,,0.00,weatherlink.com 1.10,2013-06-11 16:36:00,
2013-06-11 12:21:00,79.7,71.0,29.80,NE,53,5.0,7.0,74,0.00,,,0.00,weatherlink.com 1.10,2013-06-11 17:21:00,
2013-06-11 12:36:00,80.1,70.0,29.79,East,101,2.0,9.0,70,0.00,,,0.00,weatherlink.com 1.10,2013-06-11 17:36:00,
2013-06-11 12:51:00,80.0,69.0,29.79,ESE,102,7.0,9.0,70,0.00,,,0.00,weatherlink.com 1.10,2013-06-11 17:51:00,
2013-06-11 13:06:00,81.2,71.0,29.79,SE,140,2.0,10.0,71,0.00,,,0.00,weatherlink.com 1.10,2013-06-11 18:06:00,
2013-06-11 13:21:00,81.8,70.0,29.79,East,93,5.0,14.0,68,0.00,,,0.00,weatherlink.com 1.10,2013-06-11 18:21:00,
2013-06-11 13:51:00,83.0,71.0,29.82,ENE,77,7.0,11.0,67,0.00,,,0.00,weatherlink.com 1.10,2013-06-11 18:51:00,
2013-06-11 14:06:00,83.8,72.0,29.81,NE,55,2.0,11.0,68,0.00,,,0.00,weatherlink.com 1.10,2013-06-11 19:06:00,
2013-06-11 14:21:00,84.0,72.0,29.81,ESE,110,4.0,11.0,67,0.00,,,0.00,weatherlink.com 1.10,2013-06-11 19:21:00,
2013-06-11 14:36:00,84.8,73.0,29.81,SE,142,3.0,9.0,68,0.00,,,0.00,weatherlink.com 1.10,2013-06-11 19:36:00,
2013-06-11 14:51:00,84.9,72.0,29.81,East,89,0.0,9.0,65,0.00,,,0.00,weatherlink.com 1.10,2013-06-11 19:51:00,
2013-06-11 15:21:00,84.6,72.0,29.80,SSE,153,9.0,10.0,67,0.00,,,0.00,weatherlink.com 1.10,2013-06-11 20:21:00,
2013-06-11 15:36:00,84.0,71.0,29.80,ESE,102,2.0,8.0,65,0.00,,,0.00,weatherlink.com 1.10,2013-06-11 20:36:00,
2013-06-11 15:51:00,85.0,71.0,29.80,ESE,105,5.0,7.0,64,0.00,,,0.00,weatherlink.com 1.10,2013-06-11 20:51:00,
2013-06-11 16:06:00,85.9,72.0,29.79,SE,144,5.0,10.0,63,0.00,,,0.00,weatherlink.com 1.10,2013-06-11 21:06:00,
2013-06-11 16:21:00,86.1,72.0,29.79,East,85,7.0,8.0,63,0.00,,,0.00,weatherlink.com 1.10,2013-06-11 21:21:00,
2013-06-11 16:36:00,85.2,72.0,29.79,ESE,121,3.0,7.0,64,0.00,,,0.00,weatherlink.com 1.10,2013-06-11 21:36:00,
2013-06-11 16:51:00,84.5,74.0,29.78,SE,131,5.0,7.0,70,0.00,,,0.00,weatherlink.com 1.10,2013-06-11 21:51:00,
2013-06-11 17:06:00,85.0,71.0,29.77,ESE,103,4.0,9.0,64,0.00,,,0.00,weatherlink.com 1.10,2013-06-11 22:06:00,
2013-06-11 17:21:00,84.6,72.0,29.76,ESE,119,8.0,9.0,65,0.00,,,0.00,weatherlink.com 1.10,2013-06-11 22:21:00,
2013-06-11 17:37:00,84.4,72.0,29.78,ENE,58,3.0,6.0,66,0.00,,,0.00,weatherlink.com 1.10,2013-06-11 22:37:00,
2013-06-11 17:51:00,84.0,72.0,29.77,ESE,116,3.0,4.0,67,0.00,,,0.00,weatherlink.com 1.10,2013-06-11 22:51:00,
2013-06-11 18:07:00,83.1,72.0,29.76,SE,142,2.0,5.0,69,0.00,,,0.00,weatherlink.com 1.10,2013-06-11 23:07:00,
2013-06-11 18:21:00,82.3,72.0,29.69,ENE,63,3.0,16.0,71,0.00,,,0.00,weatherlink.com 1.10,2013-06-11 23:21:00,
2013-06-11 18:37:00,84.6,72.0,29.66,ESE,103,7.0,15.0,65,0.00,,,0.00,weatherlink.com 1.10,2013-06-11 23:37:00,
2013-06-11 18:52:00,82.9,72.0,29.70,East,101,5.0,8.0,69,0.00,,,0.00,weatherlink.com 1.10,2013-06-11 23:52:00,
2013-06-11 19:07:00,82.2,72.0,29.71,SE,144,4.0,11.0,71,0.00,,,0.00,weatherlink.com 1.10,2013-06-12 00:07:00,
2013-06-11 19:22:00,82.7,72.0,29.75,South,172,1.0,7.0,71,0.00,,,0.00,weatherlink.com 1.10,2013-06-12 00:22:00,
2013-06-11 19:37:00,82.9,73.0,29.77,East,89,3.0,7.0,71,0.00,,,0.00,weatherlink.com 1.10,2013-06-12 00:37:00,
2013-06-11 19:52:00,82.7,72.0,29.76,ESE,104,1.0,6.0,71,0.00,,,0.00,weatherlink.com 1.10,2013-06-12 00:52:00,
2013-06-11 20:07:00,82.5,73.0,29.75,East,90,2.0,4.0,73,0.00,,,0.00,weatherlink.com 1.10,2013-06-12 01:07:00,
2013-06-11 20:22:00,81.8,73.0,29.77,NNE,30,0.0,4.0,74,0.00,,,0.00,weatherlink.com 1.10,2013-06-12 01:22:00,
2013-06-11 20:37:00,81.1,73.0,29.77,NE,52,2.0,3.0,75,0.00,,,0.00,weatherlink.com 1.10,2013-06-12 01:37:00,
2013-06-11 20:52:00,80.0,72.0,29.77,NE,55,0.0,2.0,77,0.00,,,0.00,weatherlink.com 1.10,2013-06-12 01:52:00,
2013-06-11 21:07:00,79.1,72.0,29.77,ENE,69,0.0,1.0,79,0.00,,,0.00,weatherlink.com 1.10,2013-06-12 02:07:00,
2013-06-11 21:22:00,78.3,72.0,29.77,ESE,111,0.0,2.0,81,0.00,,,0.00,weatherlink.com 1.10,2013-06-12 02:22:00,
2013-06-11 21:37:00,78.5,72.0,29.77,East,100,2.0,6.0,81,0.00,,,0.00,weatherlink.com 1.10,2013-06-12 02:37:00,
2013-06-11 21:52:00,78.0,72.0,29.77,East,83,5.0,6.0,82,0.00,,,0.00,weatherlink.com 1.10,2013-06-12 02:52:00,
2013-06-11 22:07:00,77.4,72.0,29.77,East,94,1.0,5.0,84,0.00,,,0.00,weatherlink.com 1.10,2013-06-12 03:07:00,
2013-06-11 22:22:00,76.9,72.0,29.77,ESE,113,3.0,4.0,85,0.00,,,0.00,weatherlink.com 1.10,2013-06-12 03:22:00,
2013-06-11 22:37:00,76.4,72.0,29.79,ESE,122,0.0,2.0,86,0.00,,,0.00,weatherlink.com 1.10,2013-06-12 03:37:00,
2013-06-11 22:52:00,75.4,71.0,29.79,ESE,122,0.0,0.0,87,0.00,,,0.00,weatherlink.com 1.10,2013-06-12 03:52:00,
2013-06-11 23:07:00,74.6,71.0,29.79,ESE,122,0.0,0.0,88,0.00,,,0.00,weatherlink.com 1.10,2013-06-12 04:07:00,
2013-06-11 23:22:00,75.2,72.0,29.79,ESE,107,2.0,4.0,89,0.00,,,0.00,weatherlink.com 1.10,2013-06-12 04:22:00,
2013-06-11 23:37:00,75.7,72.0,29.79,SE,136,1.0,4.0,88,0.00,,,0.00,weatherlink.com 1.10,2013-06-12 04:37:00,
2013-06-11 23:52:00,76.2,72.0,29.79,SE,132,2.0,7.0,87,0.00,,,0.00,weatherlink.com 1.10,2013-06-12 04:52:00,